KSPF

Black Hills-Clyde Ice Field Airport

Spearfish, South Dakota, USA
METAR KSPF 210515Z AUTO 09008KT 10SM FEW043 SCT055 BKN075 12/09 A3030 RMK AO2 PWINO
Observed Flight Rules
Aug-21 @ 05:15 UTC (9 hours ago) Visual Flight Rules
Wind Visibility Clouds
90° at 8 knots 10 miles
  • Few at 4,300' AGL
  • Scattered at 5,500' AGL
  • Broken at 7,500' AGL
Temperatures Readings
Current 12°C / 54°F
Dewpoint 9°C / 48°F
Humidity 82%
Altimeter 30.3" Hg
Pressure 1026 hPa
Elevation 1188
METAR KSPF 210515Z AUTO 09008KT 10SM FEW043 SCT055 BKN075 12/09 A3030 RMK AO2 PWINO
Observed Flight Rules
Aug-21 @ 05:15 UTC
(9 hours ago)
VFR
Wind Visibility
90° at 8 knots 10 miles
Clouds
  • Few at 4,300' AGL
  • Scattered at 5,500' AGL
  • Broken at 7,500' AGL
Temperature Dewpoint
12°C / 54°F 9°C / 48°F
Humidity Altimeter Pressure
82% 30.3" Hg 1026 hPa